Metars

EGJB - Guernsey Airport
Distance from station: SW 8km

Current
Few Clouds
Few Clouds
 Wind from ESE
Wind: ESE 20 mph , 31 km/h
Temperature: 4°C
Wind Chill: -2°C
Dew Point: 0°C
Humidity: 75%
Barometer: 1010 hPa
Clouds: Few Clouds
Visibility: 6 miles , 10 km
Cloud details: Few Clouds 488 m
2018/12/13 12:50 EGJB 131250Z 11017KT 9999 FEW016 04/M00 Q1010
EGJA - Alderney Airport
Distance from station: NE 37km

Current
Few Clouds
Few Clouds
 Wind from ESE
Wind: ESE 21 mph , 33 km/h
Temperature: 5°C
Wind Chill: 0°C
Dew Point: 0°C
Humidity: 70%
Barometer: 1011 hPa
Clouds: Few Clouds
Visibility: 6 miles , 10 km
Cloud details: Few Clouds 610 m
2018/12/13 12:50 EGJA 131250Z 11018KT 9999 FEW020 05/M00 Q1011
EGJJ - Jersey Airport
Distance from station: SE 37km

Current
Few Clouds
Few Clouds
 Wind from ESE
Wind: ESE 24 mph , 39 km/h
Temperature: 4°C
Wind Chill: -2°C
Dew Point: -1°C
Humidity: 70%
Barometer: 1010 hPa
Clouds: Few Clouds
Visibility: 6 miles , 10 km
Cloud details: Few Clouds 610 m
2018/12/13 12:50 EGJJ 131250Z 12021KT 9999 FEW020 04/M01 Q1010